Terminal Aerodrome Forecast
Issued by NWS

Current Version | Previous Version | Text Only | Print | Product List | Glossary On
Versions: 1 2 3 4 5 6 7 8 9 10 11 12 13 14
000
FTUS45 KFGZ 252021 AAA
TAFPGA
TAF AMD
KPGA 252021Z 2520/2618 29010G20KT 2SM SHRA SCT030 BKN050 OVC080
     FM252100 25008KT P6SM BKN070
     FM260600 VRB04KT P6SM SCT070 SCT150 BKN250=

USA.gov is the U.S. government's official web portal to all federal, state and local government web resources and services.